Time;durP1;ratioP1;P1;durP2;ratioP2;P2;SDS_P1;SDS_P2;PMS_P1;PMS_P2;Temp;Humidity;BMP_temperature;BMP_pressure;BME280_temperature;BME280_humidity;BME280_pressure;Samples;Min_cycle;Max_cycle;Signal;HPM_P1;HPM_P2
2022/06/17 00:00:01;;;;;;;;;11.00;11.00;;;;;25.69;33.52;101700.44;5055635;28;45467;-71
2022/06/17 00:02:26;;;;;;;;;10.33;10.33;;;;;25.47;33.94;101678.16;5043302;28;46795;-72
2022/06/17 00:04:52;;;;;;;;;16.33;15.00;;;;;25.69;33.95;101714.91;5043678;28;46082;-70
2022/06/17 00:07:17;;;;;;;;;12.67;11.33;;;;;25.65;33.92;101713.63;5059875;28;45305;-71
2022/06/17 00:09:43;;;;;;;;;14.67;13.67;;;;;25.30;34.70;101649.78;5059850;28;45257;-72
2022/06/17 00:12:13;;;;;;;;;11.67;11.67;;;;;25.56;34.13;101684.97;5042582;28;48347;-71
2022/06/17 00:17:23;;;;;;;;;11.00;10.33;;;;;25.66;33.84;101692.69;5059294;28;45198;-72
2022/06/17 00:19:49;;;;;;;;;11.00;8.67;;;;;25.57;34.12;101680.38;5035678;28;45630;-70
2022/06/17 00:22:14;;;;;;;;;10.33;10.33;;;;;25.64;34.33;101698.34;5038897;28;46469;-71
2022/06/17 00:24:40;;;;;;;;;10.67;10.67;;;;;24.97;34.39;101606.41;5037973;28;46100;-70
2022/06/17 00:27:09;;;;;;;;;11.67;11.67;;;;;25.54;34.35;101689.00;5039130;28;45483;-70
2022/06/17 00:29:34;;;;;;;;;11.33;10.00;;;;;25.20;34.36;101630.34;5039352;28;45388;-69
2022/06/17 00:32:00;;;;;;;;;8.33;8.00;;;;;25.59;34.52;101692.72;5038492;28;45980;-70
2022/06/17 00:34:25;;;;;;;;;11.00;10.00;;;;;25.25;34.16;101634.13;5038891;28;45271;-72
2022/06/17 00:36:56;;;;;;;;;9.00;7.67;;;;;25.55;34.60;101687.94;5039006;28;45301;-72
2022/06/17 00:39:27;;;;;;;;;10.67;10.67;;;;;25.52;34.80;101699.25;5020988;28;45492;-71
2022/06/17 00:41:55;;;;;;;;;9.00;9.00;;;;;25.34;34.89;101683.66;5020439;28;47683;-70
2022/06/17 00:44:34;;;;;;;;;13.33;8.00;;;;;25.47;35.15;101699.94;5039187;28;45540;-74
2022/06/17 00:47:03;;;;;;;;;9.33;9.33;;;;;25.51;34.88;101703.03;5031807;28;45273;-71
2022/06/17 00:49:46;;;;;;;;;10.67;9.67;;;;;24.71;35.04;101585.63;5035288;28;45691;-73
2022/06/17 00:52:27;;;;;;;;;12.67;10.33;;;;;25.03;35.32;101639.06;5057028;28;48029;-71
2022/06/17 00:55:01;;;;;;;;;11.33;8.00;;;;;25.28;35.44;101695.44;5058544;28;45421;-71
2022/06/17 00:57:36;;;;;;;;;10.33;10.33;;;;;23.89;35.97;101490.19;5058663;28;45281;-72
2022/06/17 01:00:04;;;;;;;;;8.33;8.33;;;;;25.15;36.06;101691.72;5058888;28;45399;-70
2022/06/17 01:02:35;;;;;;;;;8.67;8.67;;;;;25.01;36.42;101701.00;5058144;28;45312;-71
2022/06/17 01:05:03;;;;;;;;;10.67;8.67;;;;;24.91;36.46;101678.00;5058492;28;45348;-70
2022/06/17 01:07:34;;;;;;;;;9.33;9.33;;;;;24.99;36.65;101707.69;5058517;28;45440;-70
2022/06/17 01:10:08;;;;;;;;;10.33;10.33;;;;;25.02;36.57;101708.09;5045391;28;45543;-70
2022/06/17 01:12:39;;;;;;;;;11.33;10.67;;;;;25.00;36.53;101695.78;5038011;28;46324;-71
2022/06/17 01:15:06;;;;;;;;;8.00;8.00;;;;;24.95;36.68;101690.13;5036809;28;45507;-75
2022/06/17 01:17:35;;;;;;;;;8.33;8.33;;;;;24.29;37.15;101587.06;5040809;28;45453;-72
2022/06/17 01:20:04;;;;;;;;;8.33;8.33;;;;;24.61;36.30;101639.63;5047322;28;45594;-71
2022/06/17 01:22:37;;;;;;;;;9.67;8.00;;;;;24.78;36.85;101678.88;5039309;28;47568;-72
2022/06/17 01:25:26;;;;;;;;;6.00;6.00;;;;;24.98;36.92;101706.00;5039308;28;45456;-71
2022/06/17 01:27:55;;;;;;;;;9.33;9.33;;;;;24.83;37.25;101687.25;5057944;28;45354;-70
2022/06/17 01:30:25;;;;;;;;;9.33;9.33;;;;;24.57;37.78;101656.38;5058271;28;45581;-71
2022/06/17 01:33:03;;;;;;;;;11.67;10.00;;;;;24.92;37.49;101706.88;5057948;28;46811;-71
2022/06/17 01:35:51;;;;;;;;;10.33;10.33;;;;;24.78;37.69;101706.91;5019721;28;46357;-71
2022/06/17 01:38:17;;;;;;;;;10.67;10.33;;;;;24.90;37.80;101725.31;5057153;28;45493;-70
2022/06/17 01:40:43;;;;;;;;;10.67;8.67;;;;;24.85;37.75;101715.06;5042146;28;45491;-72
2022/06/17 01:43:11;;;;;;;;;10.33;9.33;;;;;24.27;37.84;101638.88;5037338;28;46932;-71
2022/06/17 01:45:58;;;;;;;;;10.33;9.33;;;;;24.64;38.14;101724.34;5111647;27;45396;-71
2022/06/17 01:48:26;;;;;;;;;6.00;6.00;;;;;24.08;38.06;101642.47;5094794;27;45365;-70
2022/06/17 01:50:56;;;;;;;;;14.00;12.67;;;;;24.41;38.29;101675.84;5093659;27;45507;-70
2022/06/17 01:53:27;;;;;;;;;9.33;9.33;;;;;24.53;38.22;101706.78;5094659;27;45421;-72
2022/06/17 01:56:00;;;;;;;;;10.67;9.67;;;;;24.76;38.06;101725.34;5092891;27;47506;-71
2022/06/17 01:58:32;;;;;;;;;12.00;10.33;;;;;24.75;37.84;101736.44;5094300;27;45340;-69
2022/06/17 02:01:00;;;;;;;;;7.00;7.00;;;;;24.33;37.55;101664.38;5103525;27;45267;-71
2022/06/17 02:03:48;;;;;;;;;9.33;9.33;;;;;24.72;37.94;101737.69;5114905;27;45248;-69
2022/06/17 02:06:26;;;;;;;;;9.33;8.33;;;;;24.63;38.11;101740.84;5114531;27;47409;-71
2022/06/17 02:08:53;;;;;;;;;10.67;10.67;;;;;24.63;38.21;101744.44;5114609;27;45283;-70
2022/06/17 02:11:19;;;;;;;;;9.33;9.33;;;;;24.65;38.31;101736.06;5114893;27;45521;-69
2022/06/17 02:13:44;;;;;;;;;11.67;10.67;;;;;24.67;38.28;101748.38;5115110;27;45358;-71
2022/06/17 02:16:11;;;;;;;;;11.00;9.33;;;;;24.62;38.06;101760.94;5130609;27;46478;-71
2022/06/17 02:18:40;;;;;;;;;11.33;10.33;;;;;24.56;38.34;101768.88;5114663;27;45264;-72
2022/06/17 02:21:22;;;;;;;;;10.00;10.00;;;;;24.50;38.69;101758.03;5114454;27;45349;-72
2022/06/17 02:23:47;;;;;;;;;12.67;10.67;;;;;24.56;38.55;101771.59;5114797;27;45326;-70
2022/06/17 02:26:14;;;;;;;;;10.33;10.33;;;;;24.44;38.31;101727.09;5114274;27;46749;-70
2022/06/17 02:28:42;;;;;;;;;11.00;10.67;;;;;24.36;38.07;101718.31;5125231;27;46137;-72
2022/06/17 02:31:08;;;;;;;;;10.67;10.67;;;;;24.66;38.09;101760.31;5093984;27;45239;-73
2022/06/17 02:33:36;;;;;;;;;10.33;10.33;;;;;24.69;38.08;101764.50;5094029;27;45216;-73
2022/06/17 02:36:13;;;;;;;;;10.00;10.00;;;;;23.66;38.39;101598.41;5093567;27;46148;-71
2022/06/17 02:38:39;;;;;;;;;12.00;12.00;;;;;24.25;38.41;101701.59;5110827;27;45366;-72
2022/06/17 02:41:11;;;;;;;;;11.33;11.33;;;;;24.62;38.49;101763.66;5114398;27;45389;-72
2022/06/17 02:43:43;;;;;;;;;8.00;8.00;;;;;24.58;38.25;101774.94;5130094;27;45457;-71
2022/06/17 02:46:40;;;;;;;;;10.00;10.00;;;;;24.56;38.13;101763.44;5112871;27;47333;-70
2022/06/17 02:49:14;;;;;;;;;9.00;9.00;;;;;24.24;38.29;101710.78;5110019;27;45337;-71
2022/06/17 02:51:42;;;;;;;;;11.00;11.00;;;;;24.44;38.47;101759.72;5113987;27;45512;-72
2022/06/17 02:54:14;;;;;;;;;8.00;8.00;;;;;24.43;38.77;101773.53;5114158;27;45468;-72
2022/06/17 02:56:44;;;;;;;;;15.33;12.33;;;;;24.45;38.60;101772.28;5101481;27;45558;-74
2022/06/17 02:59:32;;;;;;;;;11.33;11.33;;;;;24.43;38.90;101765.38;5074764;28;45420;-72
2022/06/17 03:02:02;;;;;;;;;11.33;11.33;;;;;24.43;38.84;101763.50;5059320;28;45562;-72
2022/06/17 03:04:30;;;;;;;;;13.00;13.00;;;;;24.15;38.75;101716.63;5059307;28;45172;-70
2022/06/17 03:06:56;;;;;;;;;14.67;11.00;;;;;24.47;38.97;101781.03;5091291;27;45802;-70
2022/06/17 03:09:29;;;;;;;;;12.67;12.67;;;;;24.45;38.78;101774.16;5099957;27;45385;-72
2022/06/17 03:12:06;;;;;;;;;9.33;8.00;;;;;24.43;38.82;101763.50;5099901;27;45336;-71
2022/06/17 03:14:46;;;;;;;;;11.33;11.33;;;;;24.26;38.88;101764.94;5115725;27;45324;-71
2022/06/17 03:17:15;;;;;;;;;11.00;9.67;;;;;24.34;38.63;101756.59;5115600;27;46446;-73
2022/06/17 03:19:41;;;;;;;;;12.00;10.67;;;;;24.26;38.38;101735.03;5099840;27;46102;-70
2022/06/17 03:22:11;;;;;;;;;10.33;9.00;;;;;24.39;38.60;101745.91;5100100;27;45259;-72
2022/06/17 03:24:53;;;;;;;;;9.33;9.33;;;;;24.38;38.83;101748.84;5100414;27;45529;-70
2022/06/17 03:27:28;;;;;;;;;9.33;8.00;;;;;24.21;38.55;101732.09;5098680;27;46517;-71
2022/06/17 03:29:56;;;;;;;;;11.67;11.67;;;;;24.28;38.98;101749.25;5099737;27;45242;-70
2022/06/17 03:32:27;;;;;;;;;9.33;8.00;;;;;24.21;38.96;101742.97;5098466;27;45401;-70
2022/06/17 03:34:55;;;;;;;;;11.33;9.67;;;;;24.13;38.43;101722.28;5100110;27;45382;-70
2022/06/17 03:37:33;;;;;;;;;9.67;8.00;;;;;24.06;39.07;101712.47;5099552;27;46384;-71
2022/06/17 03:40:11;;;;;;;;;8.33;7.00;;;;;24.23;38.69;101730.03;5099491;27;45370;-71
2022/06/17 03:42:51;;;;;;;;;10.00;8.00;;;;;23.65;38.64;101641.03;5099812;27;45446;-70
2022/06/17 03:45:24;;;;;;;;;9.33;9.33;;;;;23.75;38.64;101651.47;5099416;27;45383;-71
2022/06/17 03:48:03;;;;;;;;;8.00;8.00;;;;;23.89;38.82;101674.03;5099329;27;46642;-73
2022/06/17 03:50:33;;;;;;;;;11.00;10.67;;;;;23.81;39.30;101676.94;5097994;27;46380;-72
2022/06/17 03:53:06;;;;;;;;;12.33;10.00;;;;;24.07;39.46;101738.59;5099651;27;45255;-70
2022/06/17 03:55:33;;;;;;;;;8.00;8.00;;;;;24.09;39.07;101752.81;5099693;27;45382;-69
2022/06/17 03:58:01;;;;;;;;;11.00;11.00;;;;;24.12;39.14;101760.53;5096411;27;45833;-72
2022/06/17 04:00:39;;;;;;;;;9.00;9.00;;;;;23.87;38.96;101704.13;5099143;27;45641;-72
2022/06/17 04:03:10;;;;;;;;;9.33;9.33;;;;;24.18;38.77;101746.94;5089635;27;45315;-71
2022/06/17 04:05:36;;;;;;;;;8.67;7.00;;;;;24.29;38.78;101778.13;5079351;27;46440;-72
2022/06/17 04:08:02;;;;;;;;;8.00;8.00;;;;;23.54;38.95;101638.88;5093305;27;48832;-70
2022/06/17 04:10:30;;;;;;;;;11.00;11.00;;;;;24.31;38.23;101762.44;5078326;27;45541;-71
2022/06/17 04:12:56;;;;;;;;;8.00;8.00;;;;;24.37;37.81;101758.88;5078747;27;45443;-70
2022/06/17 04:15:36;;;;;;;;;8.00;6.33;;;;;24.33;37.88;101754.06;5078988;27;45318;-73
2022/06/17 04:18:02;;;;;;;;;10.33;8.00;;;;;24.18;38.00;101748.81;5093988;27;47268;-71
2022/06/17 04:20:49;;;;;;;;;10.00;8.33;;;;;24.15;37.86;101757.41;5078463;28;45410;-71
2022/06/17 04:23:19;;;;;;;;;7.00;7.00;;;;;24.09;37.95;101750.09;5093988;27;45386;-71
2022/06/17 04:26:03;;;;;;;;;8.00;8.00;;;;;23.96;38.29;101751.75;5094303;27;45580;-72
2022/06/17 04:28:41;;;;;;;;;8.00;8.00;;;;;24.06;38.48;101761.38;5064322;27;45624;-72
2022/06/17 04:31:11;;;;;;;;;8.33;8.33;;;;;23.98;38.34;101768.66;5078129;27;45224;-71
2022/06/17 04:33:42;;;;;;;;;10.00;8.67;;;;;24.04;38.14;101766.19;5078146;27;45360;-71
2022/06/17 04:36:34;;;;;;;;;9.00;7.00;;;;;23.98;38.80;101755.06;5078205;27;45469;-70
2022/06/17 04:39:16;;;;;;;;;7.33;7.33;;;;;23.97;38.33;101755.28;5088146;27;45434;-71
2022/06/17 04:41:43;;;;;;;;;9.00;9.00;;;;;23.38;38.25;101671.84;5090040;27;45986;-72
2022/06/17 04:44:12;;;;;;;;;12.33;11.33;;;;;23.96;39.00;101765.31;5077926;28;45258;-69
2022/06/17 04:46:43;;;;;;;;;10.00;8.67;;;;;23.96;38.68;101765.31;5078348;27;45450;-72
2022/06/17 04:49:26;;;;;;;;;10.00;10.00;;;;;23.86;39.01;101748.63;5078519;28;45858;-73
2022/06/17 04:51:59;;;;;;;;;10.00;10.00;;;;;23.95;39.54;101754.66;5077746;27;45308;-71
2022/06/17 04:54:26;;;;;;;;;8.67;8.00;;;;;23.77;38.68;101703.69;5078393;27;45301;-68
2022/06/17 04:56:57;;;;;;;;;11.33;10.33;;;;;24.14;38.58;101767.44;5078233;27;45440;-72
2022/06/17 04:59:35;;;;;;;;;11.00;7.67;;;;;23.86;38.49;101713.31;5077647;28;45824;-72
2022/06/17 05:02:04;;;;;;;;;8.33;8.33;;;;;24.27;38.90;101769.31;5077640;27;45336;-71
2022/06/17 05:04:30;;;;;;;;;8.67;8.67;;;;;23.99;37.96;101709.75;5077740;27;45239;-71
2022/06/17 05:06:56;;;;;;;;;7.67;7.67;;;;;23.84;38.26;101684.69;5078032;27;45204;-75
2022/06/17 05:09:27;;;;;;;;;11.00;8.00;;;;;24.40;38.08;101774.75;5077767;27;45210;-71
2022/06/17 05:12:04;;;;;;;;;7.33;7.33;;;;;24.18;38.03;101738.78;5078557;27;45434;-72
2022/06/17 05:14:45;;;;;;;;;9.00;9.00;;;;;24.35;38.77;101766.41;5077364;27;45302;-71
2022/06/17 05:17:11;;;;;;;;;12.00;9.00;;;;;24.39;37.91;101769.53;5094273;27;45591;-72
2022/06/17 05:19:36;;;;;;;;;10.00;10.00;;;;;24.38;38.00;101765.16;5075995;28;47677;-70
2022/06/17 05:22:08;;;;;;;;;12.67;9.67;;;;;24.35;37.92;101760.97;5076438;28;45477;-72
2022/06/17 05:24:34;;;;;;;;;10.67;9.33;;;;;24.02;38.29;101692.19;5077376;27;45334;-71
2022/06/17 05:26:59;;;;;;;;;9.33;9.33;;;;;24.52;38.17;101767.66;5083187;27;45636;-73
2022/06/17 05:29:25;;;;;;;;;10.33;10.33;;;;;24.49;38.58;101746.31;5076586;27;47804;-70
2022/06/17 05:31:51;;;;;;;;;9.33;9.33;;;;;24.44;38.45;101727.09;5077491;27;45257;-71
2022/06/17 05:34:17;;;;;;;;;11.00;9.33;;;;;24.56;38.26;101751.75;5075948;28;45430;-72
2022/06/17 05:36:42;;;;;;;;;12.33;12.33;;;;;24.52;38.54;101751.34;5063021;27;45515;-71
2022/06/17 05:39:08;;;;;;;;;10.67;10.33;;;;;24.51;38.08;101746.13;5058561;28;46192;-71
2022/06/17 05:41:34;;;;;;;;;13.67;11.67;;;;;24.44;38.31;101737.97;5057672;28;45252;-72
2022/06/17 05:44:00;;;;;;;;;14.00;11.67;;;;;24.50;38.84;101748.00;5057090;28;45390;-73
2022/06/17 05:46:25;;;;;;;;;7.00;7.00;;;;;24.10;38.30;101673.81;5068678;27;45471;-71
2022/06/17 05:48:50;;;;;;;;;2.00;1.00;;;;;24.47;38.22;101723.97;5077449;27;46675;-70
2022/06/17 05:51:16;;;;;;;;;5.33;5.33;;;;;24.85;37.82;101745.84;5073986;27;45439;-71
2022/06/17 05:53:41;;;;;;;;;11.67;8.67;;;;;25.10;37.60;101710.59;5097862;27;45425;-70
2022/06/17 05:56:07;;;;;;;;;15.67;10.67;;;;;25.43;36.29;101699.53;5097133;27;45196;-73
2022/06/17 05:58:33;;;;;;;;;13.33;12.33;;;;;25.91;36.42;101747.22;5097493;27;46570;-73
2022/06/17 06:00:58;;;;;;;;;13.67;12.33;;;;;25.54;35.82;101668.03;5090159;27;45513;-72
2022/06/17 06:03:27;;;;;;;;;12.33;12.33;;;;;26.10;35.37;101721.69;5092267;27;45466;-71
2022/06/17 06:05:52;;;;;;;;;11.33;10.33;;;;;26.78;35.09;101751.66;5082497;27;45318;-78
2022/06/17 06:08:18;;;;;;;;;10.67;8.67;;;;;27.39;34.48;101750.72;5075270;27;47033;-72
2022/06/17 06:10:43;;;;;;;;;16.00;14.00;;;;;27.92;33.31;101749.97;5076666;28;45241;-73
2022/06/17 06:13:22;;;;;;;;;8.33;8.33;;;;;27.98;31.39;101674.41;5076624;27;45286;-70
2022/06/17 06:15:50;;;;;;;;;8.67;8.67;;;;;28.47;31.11;101690.34;5092861;27;45616;-71
2022/06/17 06:18:23;;;;;;;;;11.00;10.33;;;;;29.24;30.05;101747.56;5076866;27;46198;-71
2022/06/17 06:20:48;;;;;;;;;10.00;10.00;;;;;29.53;29.39;101742.09;5075047;27;45446;-71
2022/06/17 06:23:14;;;;;;;;;9.00;9.00;;;;;29.56;29.69;101692.28;5076791;27;45522;-76
2022/06/17 06:25:39;;;;;;;;;11.00;9.67;;;;;30.09;29.12;101723.91;5095103;27;45512;-69
2022/06/17 06:28:12;;;;;;;;;10.00;9.00;;;;;30.17;28.70;101715.25;5113971;27;47715;-72
2022/06/17 06:30:38;;;;;;;;;11.00;10.67;;;;;30.20;29.06;101698.28;5098099;27;45216;-71
2022/06/17 06:33:03;;;;;;;;;10.00;10.00;;;;;30.41;28.64;101715.88;5100950;27;45358;-71
2022/06/17 06:35:32;;;;;;;;;10.00;10.00;;;;;30.50;28.34;101717.94;5101032;27;45334;-71
2022/06/17 06:37:58;;;;;;;;;9.00;8.33;;;;;30.46;28.53;101697.59;5100899;27;46951;-72
2022/06/17 06:40:24;;;;;;;;;12.33;10.33;;;;;30.49;28.41;101691.56;5099129;27;45322;-71
2022/06/17 06:42:51;;;;;;;;;10.33;10.33;;;;;30.65;28.24;101692.66;5101153;27;45250;-71
2022/06/17 06:45:21;;;;;;;;;11.67;11.33;;;;;30.71;28.35;101718.25;5101640;27;45492;-71
2022/06/17 06:47:51;;;;;;;;;9.00;9.00;;;;;30.50;28.06;101709.72;5102350;27;48041;-74
2022/06/17 06:50:20;;;;;;;;;10.00;9.00;;;;;30.47;28.49;101723.09;5103396;27;45417;-74
2022/06/17 06:52:46;;;;;;;;;10.33;9.67;;;;;30.48;28.46;101728.34;5101865;27;45365;-74
2022/06/17 06:55:15;;;;;;;;;4.00;4.00;;;;;30.32;28.66;101692.69;5095278;27;45597;-71
2022/06/17 06:57:48;;;;;;;;;9.33;9.33;;;;;30.56;27.96;101714.16;5098765;27;48377;-72
2022/06/17 07:00:16;;;;;;;;;10.00;10.00;;;;;30.67;27.96;101725.34;5094401;27;45271;-73
2022/06/17 07:02:42;;;;;;;;;9.67;9.67;;;;;30.43;28.27;101662.38;5079538;27;45309;-72
2022/06/17 07:05:08;;;;;;;;;10.67;10.33;;;;;30.36;28.11;101626.09;5078406;28;46160;-71
2022/06/17 07:07:33;;;;;;;;;10.33;10.33;;;;;30.84;28.02;101710.47;5084615;27;46700;-71
2022/06/17 07:09:58;;;;;;;;;9.67;9.67;;;;;30.78;27.92;101702.41;5078916;27;45382;-72
2022/06/17 07:12:24;;;;;;;;;12.67;8.67;;;;;30.33;27.56;101626.59;5079409;27;45374;-71
2022/06/17 07:14:49;;;;;;;;;12.67;11.00;;;;;30.79;28.14;101693.06;5093526;27;45449;-71
2022/06/17 07:17:15;;;;;;;;;11.00;11.00;;;;;31.08;27.87;101738.50;5077494;28;48623;-69
2022/06/17 07:19:40;;;;;;;;;11.67;10.00;;;;;30.62;27.83;101645.66;5078799;28;45403;-72
2022/06/17 07:22:05;;;;;;;;;7.33;6.33;;;;;31.24;28.42;101733.22;5095340;27;45320;-71
2022/06/17 07:24:31;;;;;;;;;10.00;10.00;;;;;31.08;27.87;101693.72;5080211;28;45319;-69
2022/06/17 07:26:57;;;;;;;;;11.33;11.33;;;;;31.26;27.69;101706.31;5097083;27;47266;-71
2022/06/17 07:29:22;;;;;;;;;9.00;8.33;;;;;31.59;27.70;101736.31;5079408;27;45488;-72
2022/06/17 07:31:47;;;;;;;;;10.00;9.33;;;;;31.04;27.60;101616.50;5077071;27;45836;-71
2022/06/17 07:34:13;;;;;;;;;13.67;11.33;;;;;31.40;27.26;101669.06;5079358;27;45207;-70
2022/06/17 07:42:08;;;;;;;;;10.33;10.33;;;;;31.63;26.89;101679.69;5078505;28;45478;-69
2022/06/17 07:44:35;;;;;;;;;20.00;20.00;;;;;31.71;28.03;101689.41;5079824;27;45378;-69
2022/06/17 07:47:01;;;;;;;;;10.00;9.00;;;;;31.99;27.27;101721.28;5078769;27;45855;-69
2022/06/17 07:49:27;;;;;;;;;12.00;12.00;;;;;32.02;26.97;101726.25;5079197;28;45392;-71
2022/06/17 07:51:52;;;;;;;;;9.33;7.33;;;;;31.99;26.70;101754.28;5079339;28;45222;-73
2022/06/17 07:54:17;;;;;;;;;13.33;11.67;;;;;31.90;26.82;101753.94;5079586;28;45453;-70
2022/06/17 07:56:43;;;;;;;;;9.33;9.33;;;;;32.06;26.70;101774.16;5079099;28;46108;-71
2022/06/17 07:59:09;;;;;;;;;13.33;12.00;;;;;31.72;26.66;101716.66;5079954;28;45422;-71
2022/06/17 08:01:35;;;;;;;;;6.00;3.33;;;;;31.58;26.29;101687.91;5078123;27;45657;-71
2022/06/17 08:04:00;;;;;;;;;11.00;9.00;;;;;32.07;26.91;101773.09;5079064;28;45580;-72
2022/06/17 08:06:26;;;;;;;;;11.33;9.33;;;;;31.90;26.34;101742.13;5094801;27;46300;-72
2022/06/17 08:08:51;;;;;;;;;12.67;10.33;;;;;32.17;26.42;101772.31;5078923;28;45496;-71
2022/06/17 08:11:17;;;;;;;;;10.00;10.00;;;;;32.19;26.70;101773.72;5094561;27;45521;-73
2022/06/17 08:13:43;;;;;;;;;8.00;7.00;;;;;31.68;27.10;101682.50;5075224;28;45822;-74
2022/06/17 08:16:11;;;;;;;;;11.67;9.33;;;;;32.38;26.73;101780.47;5058892;28;45633;-74
2022/06/17 08:18:38;;;;;;;;;10.33;10.33;;;;;31.95;26.65;101715.47;5060923;28;45261;-70
2022/06/17 08:21:04;;;;;;;;;10.00;10.00;;;;;32.29;26.75;101760.06;5079117;28;45501;-71
2022/06/17 08:23:29;;;;;;;;;10.00;10.00;;;;;31.95;26.52;101687.16;5094876;27;45310;-72
2022/06/17 08:25:57;;;;;;;;;10.00;9.00;;;;;32.43;26.11;101765.09;5078248;28;45848;-69
2022/06/17 08:28:24;;;;;;;;;13.67;11.33;;;;;32.60;25.74;101787.78;5079625;27;45313;-74
2022/06/17 08:30:53;;;;;;;;;10.00;10.00;;;;;32.57;26.38;101777.31;5094584;27;45588;-71
2022/06/17 08:33:29;;;;;;;;;8.67;8.67;;;;;30.85;26.50;101491.63;5078947;27;45461;-70
2022/06/17 08:36:06;;;;;;;;;8.00;8.00;;;;;32.60;26.48;101766.59;5077649;28;45810;-72
2022/06/17 08:38:34;;;;;;;;;9.33;8.00;;;;;32.70;25.30;101765.81;5076896;28;46395;-73
2022/06/17 08:41:22;;;;;;;;;9.33;9.33;;;;;32.68;25.60;101762.50;5076994;28;45485;-72
2022/06/17 08:44:28;;;;;;;;;10.33;10.33;;;;;32.63;25.84;101737.69;5078247;27;45284;-72
2022/06/17 08:47:15;;;;;;;;;13.00;13.00;;;;;32.83;25.39;101770.88;5078062;27;46471;-72
2022/06/17 08:50:12;;;;;;;;;13.67;12.67;;;;;32.88;25.44;101768.16;5074237;27;45436;-72
2022/06/17 08:52:44;;;;;;;;;11.67;11.00;;;;;32.95;25.73;101757.72;5086782;27;45390;-73
2022/06/17 08:55:33;;;;;;;;;8.67;8.67;;;;;32.89;24.44;101747.78;5093535;27;45604;-75
2022/06/17 08:58:08;;;;;;;;;17.67;16.67;;;;;32.94;24.78;101761.56;5077721;27;46222;-72
2022/06/17 09:00:48;;;;;;;;;14.00;12.00;;;;;32.09;25.39;101611.31;5078011;27;45731;-72
2022/06/17 09:04:05;;;;;;;;;8.00;8.00;;;;;32.91;24.43;101742.00;5078020;28;45388;-71
2022/06/17 09:06:52;;;;;;;;;8.67;8.67;;;;;32.93;24.76;101748.88;5055152;28;45542;-69
2022/06/17 09:09:29;;;;;;;;;8.00;8.00;;;;;32.98;24.69;101757.16;5058727;28;45719;-71
2022/06/17 09:12:27;;;;;;;;;6.00;6.00;;;;;32.82;23.82;101716.88;5085569;27;46284;-69
2022/06/17 09:15:12;;;;;;;;;10.00;10.00;;;;;33.05;23.36;101754.19;5079098;28;45315;-71
2022/06/17 09:17:47;;;;;;;;;8.67;8.00;;;;;32.82;22.19;101744.41;5078769;28;45346;-70
2022/06/17 09:20:18;;;;;;;;;8.67;8.67;;;;;32.40;23.85;101696.81;5096721;27;47930;-70
2022/06/17 09:22:50;;;;;;;;;9.67;8.33;;;;;32.54;23.79;101742.88;5083792;27;45369;-71
2022/06/17 09:25:23;;;;;;;;;11.33;10.00;;;;;32.33;25.05;101721.84;5075343;28;45371;-71
2022/06/17 09:27:52;;;;;;;;;7.00;6.67;;;;;32.44;24.59;101747.47;5077047;27;45515;-70
2022/06/17 09:30:20;;;;;;;;;9.00;9.00;;;;;32.23;23.22;101736.31;5075757;27;45630;-70
2022/06/17 09:32:53;;;;;;;;;10.00;9.00;;;;;32.17;23.66;101734.63;5080440;27;45471;-69
2022/06/17 09:35:33;;;;;;;;;8.33;8.33;;;;;32.13;24.64;101733.50;5075184;28;45504;-71
2022/06/17 09:38:10;;;;;;;;;10.00;10.00;;;;;31.95;24.27;101712.72;5075969;27;45673;-71
2022/06/17 09:40:40;;;;;;;;;8.00;8.00;;;;;31.72;24.10;101669.94;5075418;27;46412;-69
2022/06/17 09:43:26;;;;;;;;;9.33;9.33;;;;;32.04;23.83;101732.34;5076397;28;45323;-72
2022/06/17 09:45:58;;;;;;;;;9.00;9.00;;;;;31.98;24.01;101736.13;5076057;28;45504;-71
2022/06/17 09:48:23;;;;;;;;;5.00;5.00;;;;;31.53;23.25;101685.13;5091160;27;45316;-72
2022/06/17 09:51:38;;;;;;;;;7.33;7.33;;;;;31.75;23.72;101735.38;5076317;27;45277;-71
2022/06/17 09:54:24;;;;;;;;;9.00;8.00;;;;;31.70;24.27;101738.06;5059936;27;45564;-71
2022/06/17 09:56:58;;;;;;;;;8.33;8.33;;;;;31.60;24.02;101740.72;5074925;27;45591;-69
2022/06/17 09:59:50;;;;;;;;;7.33;6.33;;;;;31.18;25.31;101686.44;5074984;28;45506;-71
2022/06/17 10:02:37;;;;;;;;;11.00;9.67;;;;;31.51;25.81;101731.28;5075998;27;46746;-72
2022/06/17 10:05:15;;;;;;;;;9.00;7.00;;;;;31.46;25.47;101723.00;5076826;27;45362;-71
2022/06/17 10:08:03;;;;;;;;;10.33;8.67;;;;;31.30;24.25;101696.44;5079270;27;45438;-71
2022/06/17 10:10:48;;;;;;;;;7.00;7.00;;;;;30.97;23.98;101661.72;5081868;27;45500;-75
2022/06/17 10:13:42;;;;;;;;;7.00;7.00;;;;;31.42;24.30;101743.81;5083490;27;45803;-71
2022/06/17 10:19:21;;;;;;;;;7.00;7.00;;;;;31.27;25.41;101736.25;5079782;28;45500;-68
2022/06/17 10:22:11;;;;;;;;;9.00;9.00;;;;;31.24;24.59;101722.22;5079585;28;45320;-70
2022/06/17 10:25:18;;;;;;;;;21.33;21.33;;;;;31.23;25.53;101728.78;5079295;28;46090;-70
2022/06/17 10:28:09;;;;;;;;;8.33;8.33;;;;;31.22;25.29;101727.94;5078991;27;45521;-69
2022/06/17 10:30:52;;;;;;;;;8.67;8.67;;;;;31.17;23.77;101717.72;5079387;27;45480;-69
2022/06/17 10:33:18;;;;;;;;;9.00;9.00;;;;;30.26;23.90;101573.84;5079550;28;45331;-70
2022/06/17 10:35:46;;;;;;;;;8.00;6.00;;;;;30.76;23.32;101671.63;5078984;28;45572;-71
2022/06/17 10:38:28;;;;;;;;;9.00;9.00;;;;;30.28;24.27;101599.09;5079128;28;45346;-71
2022/06/17 10:40:53;;;;;;;;;6.67;6.00;;;;;31.04;23.25;101725.53;5079235;28;45370;-70
2022/06/17 10:43:23;;;;;;;;;6.67;6.67;;;;;31.01;23.41;101718.59;5093841;27;45453;-71
2022/06/17 10:45:49;;;;;;;;;9.00;9.00;;;;;31.01;24.75;101721.34;5078043;28;49026;-70
2022/06/17 10:48:32;;;;;;;;;12.00;12.00;;;;;30.78;24.52;101691.41;5079287;27;45855;-68
2022/06/17 10:51:00;;;;;;;;;8.33;8.00;;;;;30.99;24.68;101718.03;5079176;28;45404;-71
2022/06/17 10:53:39;;;;;;;;;7.00;7.00;;;;;30.90;25.29;101710.53;5079557;27;45367;-71
2022/06/17 10:56:09;;;;;;;;;6.00;6.00;;;;;30.18;24.42;101593.47;5079101;27;45761;-73
2022/06/17 10:58:35;;;;;;;;;6.00;5.00;;;;;30.54;23.79;101661.44;5079384;27;45303;-70
2022/06/17 11:01:07;;;;;;;;;6.67;6.33;;;;;30.72;23.33;101695.19;5079560;28;45174;-71
2022/06/17 11:03:41;;;;;;;;;4.00;4.00;;;;;30.85;22.80;101719.53;5095002;27;45562;-73
2022/06/17 11:06:10;;;;;;;;;4.67;4.33;;;;;30.87;23.07;101731.09;5077883;28;47677;-73
2022/06/17 11:09:00;;;;;;;;;6.67;6.67;;;;;30.70;23.61;101713.84;5078975;27;45169;-71
2022/06/17 11:12:02;;;;;;;;;6.67;6.67;;;;;30.78;23.90;101727.94;5067176;27;45464;-69
2022/06/17 11:14:36;;;;;;;;;6.33;6.00;;;;;30.77;24.56;101725.44;5086732;27;45310;-69
2022/06/17 11:17:10;;;;;;;;;7.00;7.00;;;;;30.71;25.54;101718.25;5114201;27;48273;-71
2022/06/17 11:19:39;;;;;;;;;8.00;8.00;;;;;30.51;24.93;101683.91;5082444;27;45279;-69
2022/06/17 11:22:16;;;;;;;;;8.00;8.00;;;;;30.79;26.00;101731.50;5077692;28;45331;-72
2022/06/17 11:24:42;;;;;;;;;7.00;7.00;;;;;30.57;25.81;101691.13;5078536;27;45542;-69
2022/06/17 11:27:28;;;;;;;;;8.00;8.00;;;;;30.56;26.65;101691.38;5075617;27;45528;-69
2022/06/17 11:29:56;;;;;;;;;10.00;8.33;;;;;30.79;25.51;101720.53;5058483;28;45347;-68
2022/06/17 11:32:31;;;;;;;;;6.00;6.00;;;;;30.28;25.08;101635.59;5081515;27;45451;-71
2022/06/17 11:35:00;;;;;;;;;6.00;6.00;;;;;30.81;25.94;101726.59;5078999;27;45211;-71
2022/06/17 11:37:34;;;;;;;;;12.67;12.00;;;;;30.78;26.63;101716.13;5077093;27;46750;-72
2022/06/17 11:40:21;;;;;;;;;8.33;8.33;;;;;30.62;27.00;101678.59;5073562;28;45509;-71
2022/06/17 11:42:58;;;;;;;;;6.67;6.67;;;;;30.83;25.20;101707.94;5062212;28;45332;-69
2022/06/17 11:45:38;;;;;;;;;10.67;8.33;;;;;30.70;25.90;101684.47;5075370;27;45588;-71
2022/06/17 11:48:12;;;;;;;;;13.33;12.00;;;;;30.82;26.21;101700.81;5077728;27;45681;-71
2022/06/17 11:50:41;;;;;;;;;9.67;9.67;;;;;30.48;26.27;101636.94;5076570;28;45359;-72